createdAt,value
2022-08-09T00:01:01.359Z,100.00
2022-08-09T00:04:08.569Z,100.00
2022-08-09T00:06:22.687Z,100.00
2022-08-09T00:08:57.536Z,100.00
2022-08-09T00:11:56.829Z,100.00
2022-08-09T00:14:17.346Z,100.00
2022-08-09T00:16:51.670Z,100.00
2022-08-09T00:19:21.876Z,100.00
2022-08-09T00:21:56.066Z,100.00
2022-08-09T00:24:27.242Z,100.00
2022-08-09T00:26:57.596Z,100.00
2022-08-09T00:30:16.093Z,100.00
2022-08-09T00:32:26.532Z,100.00
2022-08-09T00:34:56.526Z,100.00
2022-08-09T00:37:32.251Z,100.00
2022-08-09T00:40:12.668Z,100.00
2022-08-09T00:44:11.191Z,100.00
2022-08-09T00:45:36.434Z,100.00
2022-08-09T00:48:05.731Z,100.00
2022-08-09T00:50:37.749Z,100.00
2022-08-09T00:53:08.806Z,100.00
2022-08-09T00:56:04.084Z,100.00
2022-08-09T00:58:31.623Z,100.00
2022-08-09T01:01:03.288Z,100.00
2022-08-09T01:03:47.756Z,100.00
2022-08-09T01:06:25.539Z,100.00
2022-08-09T01:09:11.035Z,100.00
2022-08-09T01:11:53.436Z,100.00
2022-08-09T01:14:30.177Z,100.00
2022-08-09T01:17:09.028Z,100.00
2022-08-09T01:19:57.153Z,100.00
2022-08-09T01:24:03.363Z,100.00
2022-08-09T01:26:19.726Z,100.00
2022-08-09T01:28:52.335Z,100.00
2022-08-09T01:31:40.915Z,100.00
2022-08-09T01:34:14.409Z,100.00
2022-08-09T01:36:46.085Z,100.00
2022-08-09T01:39:16.539Z,100.00
2022-08-09T01:41:55.643Z,100.00
2022-08-09T01:44:32.287Z,100.00
2022-08-09T01:47:03.248Z,100.00
2022-08-09T01:49:39.207Z,100.00
2022-08-09T01:52:11.952Z,100.00
2022-08-09T01:54:48.706Z,100.00
2022-08-09T01:57:21.711Z,100.00
2022-08-09T02:00:00.269Z,100.00
2022-08-09T02:02:46.094Z,100.00
2022-08-09T02:05:17.242Z,100.00
2022-08-09T02:08:39.389Z,100.00
2022-08-09T02:10:41.002Z,100.00
2022-08-09T02:13:13.620Z,100.00
2022-08-09T02:15:49.306Z,100.00
2022-08-09T02:18:23.626Z,100.00
2022-08-09T02:20:56.656Z,100.00
2022-08-09T02:23:31.827Z,100.00
2022-08-09T02:26:08.332Z,100.00
2022-08-09T02:28:56.924Z,100.00
2022-08-09T02:31:35.583Z,100.00
2022-08-09T02:34:13.249Z,100.00
2022-08-09T02:36:56.811Z,100.00
2022-08-09T02:39:33.606Z,100.00
2022-08-09T02:42:06.607Z,100.00
2022-08-09T02:44:37.406Z,100.00
2022-08-09T02:47:12.914Z,100.00
2022-08-09T02:49:45.194Z,100.00
2022-08-09T02:52:16.866Z,100.00
2022-08-09T02:54:54.282Z,100.00
2022-08-09T02:57:26.832Z,100.00
2022-08-09T03:00:11.638Z,100.00
2022-08-09T03:02:58.266Z,100.00
2022-08-09T03:05:29.803Z,100.00
2022-08-09T03:08:04.626Z,100.00
2022-08-09T03:10:34.605Z,100.00
2022-08-09T03:13:03.053Z,100.00
2022-08-09T03:16:04.501Z,100.00
2022-08-09T03:18:30.624Z,100.00
2022-08-09T03:21:01.572Z,100.00
2022-08-09T03:23:30.633Z,100.00
2022-08-09T03:26:03.445Z,100.00
2022-08-09T03:28:34.299Z,100.00
2022-08-09T03:31:04.316Z,100.00
2022-08-09T03:33:54.624Z,100.00
2022-08-09T03:36:27.343Z,100.00
2022-08-09T03:38:57.814Z,100.00
2022-08-09T03:41:29.918Z,100.00
2022-08-09T03:44:13.354Z,100.00
2022-08-09T03:46:46.471Z,100.00
2022-08-09T03:49:19.179Z,100.00
2022-08-09T03:51:58.357Z,100.00
2022-08-09T03:54:32.043Z,100.00
2022-08-09T03:57:04.471Z,100.00
2022-08-09T03:59:54.945Z,100.00
2022-08-09T04:02:28.352Z,100.00
2022-08-09T04:05:06.239Z,100.00
2022-08-09T04:07:52.934Z,100.00
2022-08-09T04:10:28.332Z,100.00
2022-08-09T04:12:57.752Z,100.00
2022-08-09T04:15:42.649Z,100.00
2022-08-09T04:18:18.119Z,100.00
2022-08-09T04:20:49.755Z,100.00
2022-08-09T04:23:24.431Z,100.00
2022-08-09T04:25:54.428Z,100.00
2022-08-09T04:28:34.240Z,100.00
2022-08-09T04:31:09.297Z,100.00
2022-08-09T04:33:47.674Z,100.00
2022-08-09T04:36:26.131Z,100.00
2022-08-09T04:38:55.452Z,100.00
2022-08-09T04:41:33.048Z,100.00
2022-08-09T04:44:05.998Z,100.00
2022-08-09T04:46:57.262Z,100.00
2022-08-09T04:49:53.000Z,100.00
2022-08-09T04:52:27.095Z,100.00
2022-08-09T04:54:56.701Z,100.00
2022-08-09T04:57:25.782Z,100.00
2022-08-09T04:59:55.989Z,100.00
2022-08-09T05:02:27.489Z,100.00
2022-08-09T05:04:56.454Z,100.00
2022-08-09T05:07:29.191Z,100.00
2022-08-09T05:10:02.011Z,100.00
2022-08-09T05:12:31.300Z,100.00
2022-08-09T05:15:11.198Z,100.00
2022-08-09T05:18:50.439Z,100.00
2022-08-09T05:20:30.588Z,100.00
2022-08-09T05:23:54.625Z,100.00
2022-08-09T05:25:51.022Z,100.00
2022-08-09T05:28:21.305Z,100.00
2022-08-09T05:30:51.461Z,100.00
2022-08-09T05:33:26.387Z,100.00
2022-08-09T05:36:04.155Z,100.00
2022-08-09T05:38:39.168Z,100.00
2022-08-09T05:41:12.601Z,100.00
2022-08-09T05:43:45.309Z,100.00
2022-08-09T05:46:17.806Z,100.00
2022-08-09T05:48:48.670Z,100.00
2022-08-09T05:51:42.906Z,100.00
2022-08-09T05:54:17.941Z,100.00
2022-08-09T05:56:54.610Z,100.00
2022-08-09T05:59:24.142Z,100.00
2022-08-09T06:01:58.507Z,100.00
2022-08-09T06:04:34.761Z,100.00
2022-08-09T06:07:08.105Z,100.00
2022-08-09T06:10:02.048Z,100.00
2022-08-09T06:12:29.948Z,100.00
2022-08-09T06:15:01.518Z,100.00
2022-08-09T06:17:39.075Z,100.00
2022-08-09T06:20:09.829Z,100.00
2022-08-09T06:22:39.454Z,100.00
2022-08-09T06:25:12.335Z,100.00
2022-08-09T06:27:51.480Z,100.00
2022-08-09T06:30:21.236Z,100.00
2022-08-09T06:32:59.509Z,100.00
2022-08-09T06:35:57.675Z,100.00
2022-08-09T06:38:36.371Z,100.00
2022-08-09T06:41:18.183Z,100.00
2022-08-09T06:43:48.482Z,100.00
2022-08-09T06:46:39.491Z,100.00
2022-08-09T06:49:06.648Z,100.00
2022-08-09T06:51:39.977Z,100.00
2022-08-09T06:54:12.453Z,100.00
2022-08-09T06:56:46.467Z,100.00
2022-08-09T07:00:57.038Z,100.00
2022-08-09T07:02:04.960Z,100.00
2022-08-09T07:04:34.207Z,100.00
2022-08-09T07:07:04.723Z,100.00
2022-08-09T07:09:57.214Z,100.00
2022-08-09T07:12:38.414Z,100.00
2022-08-09T07:15:53.919Z,100.00
2022-08-09T07:18:02.373Z,100.00
2022-08-09T07:20:31.978Z,100.00
2022-08-09T07:23:00.793Z,100.00
2022-08-09T07:25:29.825Z,100.00
2022-08-09T07:28:09.646Z,100.00
2022-08-09T07:30:47.738Z,100.00
2022-08-09T07:33:17.276Z,100.00
2022-08-09T07:35:54.362Z,100.00
2022-08-09T07:38:23.894Z,100.00
2022-08-09T07:41:11.204Z,100.00
2022-08-09T07:43:49.899Z,100.00
2022-08-09T07:46:27.910Z,100.00
2022-08-09T07:48:59.629Z,100.00
2022-08-09T07:52:05.315Z,100.00
2022-08-09T07:54:27.747Z,100.00
2022-08-09T07:56:57.139Z,100.00
2022-08-09T07:59:34.254Z,100.00
2022-08-09T08:02:19.502Z,100.00
2022-08-09T08:04:53.895Z,100.00
2022-08-09T08:08:44.322Z,95.70
2022-08-09T08:10:11.920Z,98.43
2022-08-09T08:12:45.631Z,95.91
2022-08-09T08:15:17.962Z,91.90
2022-08-09T08:17:58.224Z,86.36
2022-08-09T08:20:32.336Z,84.69
2022-08-09T08:23:15.852Z,85.87
2022-08-09T08:25:48.391Z,86.89
2022-08-09T08:28:26.061Z,84.89
2022-08-09T08:31:13.825Z,85.80
2022-08-09T08:33:52.676Z,85.47
2022-08-09T08:36:28.392Z,85.75
2022-08-09T08:39:00.432Z,86.07
2022-08-09T08:41:42.141Z,89.27
2022-08-09T08:44:27.404Z,88.40
2022-08-09T08:47:04.342Z,87.53
2022-08-09T08:49:47.971Z,88.95
2022-08-09T08:55:08.588Z,88.87
2022-08-09T08:57:37.912Z,89.67
2022-08-09T09:00:16.878Z,91.84
2022-08-09T09:02:53.671Z,89.49
2022-08-09T09:05:33.053Z,91.82
2022-08-09T09:08:30.223Z,89.56
2022-08-09T09:11:04.063Z,93.38
2022-08-09T09:13:41.900Z,92.18
2022-08-09T09:16:30.913Z,91.91
2022-08-09T09:19:37.572Z,88.74
2022-08-09T09:22:04.282Z,91.79
2022-08-09T09:24:37.904Z,89.74
2022-08-09T09:27:08.514Z,81.35
2022-08-09T09:30:08.401Z,81.42
2022-08-09T09:32:32.183Z,82.45
2022-08-09T09:35:09.916Z,84.85
2022-08-09T09:37:40.596Z,86.74
2022-08-09T09:40:12.421Z,87.53
2022-08-09T09:42:46.055Z,84.45
2022-08-09T09:45:25.551Z,83.34
2022-08-09T09:47:58.815Z,84.33
2022-08-09T09:50:50.725Z,82.62
2022-08-09T09:53:21.751Z,79.63
2022-08-09T09:56:19.754Z,79.31
2022-08-09T09:59:00.354Z,75.81
2022-08-09T10:01:38.282Z,76.94
2022-08-09T10:04:16.297Z,79.71
2022-08-09T10:06:54.492Z,83.80
2022-08-09T10:09:24.285Z,84.17
2022-08-09T10:12:14.537Z,82.14
2022-08-09T10:14:50.074Z,80.04
2022-08-09T10:17:51.025Z,78.73
2022-08-09T10:20:27.467Z,74.93
2022-08-09T10:23:17.483Z,77.91
2022-08-09T10:26:05.972Z,76.32
2022-08-09T10:28:38.220Z,76.23
2022-08-09T10:34:11.257Z,74.72
2022-08-09T10:36:46.435Z,75.93
2022-08-09T10:39:19.850Z,75.41
2022-08-09T10:41:49.545Z,74.05
2022-08-09T10:44:21.779Z,71.61
2022-08-09T10:48:12.762Z,70.82
2022-08-09T10:50:17.384Z,74.68
2022-08-09T10:53:10.400Z,69.41
2022-08-09T10:55:58.959Z,70.37
2022-08-09T10:58:33.546Z,66.95
2022-08-09T11:03:02.043Z,61.82
2022-08-09T11:04:19.903Z,51.07
2022-08-09T11:07:56.656Z,38.15
2022-08-09T11:10:18.457Z,29.94
2022-08-09T11:13:51.063Z,22.21
2022-08-09T11:16:33.632Z,19.60
2022-08-09T11:19:09.332Z,17.66
2022-08-09T11:21:57.417Z,17.98
2022-08-09T11:25:09.757Z,18.36
2022-08-09T11:28:03.972Z,20.43
2022-08-09T11:30:37.589Z,18.28
2022-08-09T11:33:10.541Z,19.49
2022-08-09T11:35:50.115Z,23.20
2022-08-09T11:38:22.121Z,25.80
2022-08-09T11:40:53.071Z,28.82
2022-08-09T11:43:40.948Z,31.82
2022-08-09T11:46:11.562Z,36.08
2022-08-09T11:48:50.705Z,36.63
2022-08-09T11:53:00.699Z,35.60
2022-08-09T11:54:28.543Z,32.85
2022-08-09T11:58:00.052Z,27.54
2022-08-09T12:00:29.182Z,26.80
2022-08-09T12:03:10.027Z,27.59
2022-08-09T12:05:58.104Z,22.87
2022-08-09T12:08:28.760Z,23.52
2022-08-09T12:11:00.070Z,23.12
2022-08-09T12:14:06.949Z,20.68
2022-08-09T12:16:37.923Z,20.00
2022-08-09T12:19:12.057Z,22.01
2022-08-09T12:21:48.547Z,23.65
2022-08-09T12:24:25.273Z,26.18
2022-08-09T12:29:00.307Z,25.87
2022-08-09T12:30:01.991Z,28.58
2022-08-09T12:32:44.641Z,32.15
2022-08-09T12:35:19.094Z,39.61
2022-08-09T12:37:52.346Z,32.16
2022-08-09T12:40:24.754Z,26.17
2022-08-09T12:42:54.362Z,21.83
2022-08-09T12:45:34.031Z,19.68
2022-08-09T12:48:04.772Z,19.37
2022-08-09T12:50:34.666Z,17.82
2022-08-09T12:53:18.095Z,16.59
2022-08-09T12:56:14.779Z,14.75
2022-08-09T12:58:42.965Z,16.10
2022-08-09T13:01:22.986Z,15.85
2022-08-09T13:04:01.873Z,15.93
2022-08-09T13:06:35.641Z,15.58
2022-08-09T13:09:11.335Z,15.71
2022-08-09T13:11:43.419Z,16.48
2022-08-09T13:14:42.700Z,16.29
2022-08-09T13:17:03.649Z,17.50
2022-08-09T13:20:10.403Z,17.36
2022-08-09T13:23:00.484Z,22.47
2022-08-09T13:25:15.108Z,26.24
2022-08-09T13:27:48.885Z,31.29
2022-08-09T13:30:50.819Z,38.07
2022-08-09T13:33:23.216Z,42.86
2022-08-09T13:36:38.768Z,39.96
2022-08-09T13:38:57.702Z,33.48
2022-08-09T13:41:57.132Z,31.71
2022-08-09T13:44:17.659Z,33.72
2022-08-09T13:47:29.093Z,35.30
2022-08-09T13:49:37.719Z,37.63
2022-08-09T13:52:09.279Z,40.25
2022-08-09T13:54:41.629Z,44.98
2022-08-09T13:57:35.058Z,51.59
2022-08-09T14:00:01.045Z,55.92
2022-08-09T14:02:42.821Z,59.19
2022-08-09T14:06:01.302Z,64.79
2022-08-09T14:08:18.598Z,56.81
2022-08-09T14:10:52.230Z,50.43
2022-08-09T14:14:15.096Z,42.40
2022-08-09T14:16:15.501Z,36.27
2022-08-09T14:18:49.266Z,34.85
2022-08-09T14:21:22.364Z,33.00
2022-08-09T14:23:56.606Z,33.12
2022-08-09T14:26:32.890Z,33.39
2022-08-09T14:29:07.953Z,31.18
2022-08-09T14:31:55.417Z,31.33
2022-08-09T14:34:27.279Z,31.14
2022-08-09T14:37:01.748Z,29.18
2022-08-09T14:39:39.869Z,28.37
2022-08-09T14:42:11.220Z,27.16
2022-08-09T14:44:48.523Z,27.78
2022-08-09T14:47:41.224Z,28.24
2022-08-09T14:50:07.858Z,26.85
2022-08-09T14:52:39.690Z,29.06
2022-08-09T14:55:10.565Z,29.72
2022-08-09T14:57:43.129Z,28.69
2022-08-09T15:00:13.130Z,28.67
2022-08-09T15:02:41.894Z,28.15
2022-08-09T15:05:11.852Z,27.05
2022-08-09T15:07:45.232Z,26.37
2022-08-09T15:10:16.950Z,25.47
2022-08-09T15:12:47.311Z,25.07
2022-08-09T15:15:16.243Z,24.64
2022-08-09T15:17:51.737Z,24.28
2022-08-09T15:21:58.697Z,23.80
2022-08-09T15:24:01.179Z,24.87
2022-08-09T15:26:02.275Z,28.15
2022-08-09T15:28:35.516Z,34.03
2022-08-09T15:31:13.376Z,39.81
2022-08-09T15:34:27.418Z,50.85
2022-08-09T15:36:35.777Z,55.36
2022-08-09T15:39:06.927Z,60.95
2022-08-09T15:41:37.998Z,66.32
2022-08-09T15:44:17.084Z,68.45
2022-08-09T15:46:49.419Z,67.19
2022-08-09T15:49:22.478Z,65.95
2022-08-09T15:52:04.842Z,59.84
2022-08-09T15:54:49.078Z,50.26
2022-08-09T15:57:34.093Z,44.65
2022-08-09T16:00:13.849Z,44.46
2022-08-09T16:02:48.087Z,46.11
2022-08-09T16:05:26.629Z,50.29
2022-08-09T16:08:29.566Z,54.98
2022-08-09T16:10:59.256Z,55.07
2022-08-09T16:14:03.302Z,57.60
2022-08-09T16:16:19.501Z,61.39
2022-08-09T16:18:48.915Z,60.70
2022-08-09T16:21:25.180Z,62.28
2022-08-09T16:23:55.965Z,63.40
2022-08-09T16:26:34.804Z,63.26
2022-08-09T16:29:11.603Z,67.93
2022-08-09T16:32:20.236Z,70.79
2022-08-09T16:34:54.407Z,73.50
2022-08-09T16:37:54.497Z,79.48
2022-08-09T16:40:13.714Z,82.34
2022-08-09T16:42:45.153Z,76.40
2022-08-09T16:45:18.688Z,67.33
2022-08-09T16:48:41.611Z,59.44
2022-08-09T16:50:39.353Z,52.85
2022-08-09T16:53:08.947Z,57.19
2022-08-09T16:55:59.859Z,69.11
2022-08-09T16:58:26.723Z,75.62
2022-08-09T17:00:55.650Z,81.46
2022-08-09T17:03:26.040Z,85.00
2022-08-09T17:06:07.770Z,90.02
2022-08-09T17:08:46.676Z,96.41
2022-08-09T17:11:40.632Z,100.00
2022-08-09T17:14:26.057Z,100.00
2022-08-09T17:16:59.799Z,100.00
2022-08-09T17:19:46.470Z,100.00
2022-08-09T17:22:25.099Z,100.00
2022-08-09T17:25:03.112Z,100.00
2022-08-09T17:27:38.216Z,100.00
2022-08-09T17:30:12.927Z,100.00
2022-08-09T17:32:44.360Z,100.00
2022-08-09T17:35:16.828Z,100.00
2022-08-09T17:38:12.577Z,100.00
2022-08-09T17:40:36.521Z,100.00
2022-08-09T17:43:32.442Z,100.00
2022-08-09T17:46:02.869Z,100.00
2022-08-09T17:48:39.569Z,100.00
2022-08-09T17:51:18.437Z,100.00
2022-08-09T17:53:53.608Z,100.00
2022-08-09T17:56:27.885Z,100.00
2022-08-09T17:58:59.482Z,100.00
2022-08-09T18:02:03.899Z,100.00
2022-08-09T18:04:19.742Z,100.00
2022-08-09T18:06:54.793Z,100.00
2022-08-09T18:09:40.375Z,100.00
2022-08-09T18:12:17.200Z,100.00
2022-08-09T18:14:50.083Z,100.00
2022-08-09T18:18:02.729Z,100.00
2022-08-09T18:20:53.735Z,100.00
2022-08-09T18:23:07.105Z,100.00
2022-08-09T18:25:52.613Z,100.00
2022-08-09T18:30:39.252Z,100.00
2022-08-09T18:31:13.127Z,100.00
2022-08-09T18:33:48.835Z,100.00
2022-08-09T18:36:25.786Z,100.00
2022-08-09T18:39:03.358Z,100.00
2022-08-09T18:41:34.745Z,100.00
2022-08-09T18:44:12.953Z,100.00
2022-08-09T18:46:51.369Z,100.00
2022-08-09T18:49:43.796Z,100.00
2022-08-09T18:52:18.693Z,100.00
2022-08-09T18:54:55.409Z,100.00
2022-08-09T18:57:38.491Z,100.00
2022-08-09T19:00:20.096Z,100.00
2022-08-09T19:02:51.022Z,100.00
2022-08-09T19:05:41.329Z,100.00
2022-08-09T19:08:13.993Z,100.00
2022-08-09T19:10:49.145Z,100.00
2022-08-09T19:13:23.552Z,100.00
2022-08-09T19:16:07.519Z,100.00
2022-08-09T19:18:42.276Z,100.00
2022-08-09T19:21:13.282Z,100.00
2022-08-09T19:24:32.489Z,100.00
2022-08-09T19:26:35.196Z,100.00
2022-08-09T19:29:09.427Z,100.00
2022-08-09T19:31:45.657Z,100.00
2022-08-09T19:34:21.518Z,100.00
2022-08-09T19:36:53.209Z,100.00
2022-08-09T19:39:29.197Z,100.00
2022-08-09T19:42:14.601Z,100.00
2022-08-09T19:44:44.461Z,100.00
2022-08-09T19:47:22.775Z,100.00
2022-08-09T19:50:09.150Z,100.00
2022-08-09T19:52:51.512Z,100.00
2022-08-09T19:55:30.651Z,100.00
2022-08-09T19:58:16.609Z,100.00
2022-08-09T20:00:46.842Z,100.00
2022-08-09T20:04:10.034Z,100.00
2022-08-09T20:06:22.588Z,100.00
2022-08-09T20:08:55.343Z,100.00
2022-08-09T20:11:26.964Z,100.00
2022-08-09T20:13:57.822Z,100.00
2022-08-09T20:16:33.357Z,100.00
2022-08-09T20:19:48.775Z,100.00
2022-08-09T20:22:00.019Z,100.00
2022-08-09T20:24:33.897Z,100.00
2022-08-09T20:27:05.667Z,100.00
2022-08-09T20:29:39.269Z,100.00
2022-08-09T20:32:30.205Z,100.00
2022-08-09T20:34:57.944Z,100.00
2022-08-09T20:38:18.434Z,100.00
2022-08-09T20:40:26.475Z,100.00
2022-08-09T20:43:11.982Z,100.00
2022-08-09T20:46:01.008Z,100.00
2022-08-09T20:48:38.103Z,100.00
2022-08-09T20:51:07.371Z,100.00
2022-08-09T20:53:48.813Z,100.00
2022-08-09T20:56:21.203Z,100.00
2022-08-09T20:58:54.468Z,100.00
2022-08-09T21:01:34.696Z,100.00
2022-08-09T21:05:51.175Z,100.00
2022-08-09T21:07:11.815Z,100.00
2022-08-09T21:09:45.646Z,100.00
2022-08-09T21:14:49.450Z,100.00
2022-08-09T21:18:23.476Z,100.00
2022-08-09T21:20:22.740Z,100.00
2022-08-09T21:22:55.520Z,100.00
2022-08-09T21:25:44.047Z,100.00
2022-08-09T21:28:34.343Z,100.00
2022-08-09T21:31:16.680Z,100.00
2022-08-09T21:33:52.479Z,100.00
2022-08-09T21:36:23.717Z,100.00
2022-08-09T21:38:57.499Z,100.00
2022-08-09T21:42:05.399Z,100.00
2022-08-09T21:44:32.725Z,100.00
2022-08-09T21:47:05.473Z,100.00
2022-08-09T21:49:39.722Z,100.00
2022-08-09T21:52:16.297Z,100.00
2022-08-09T21:54:49.464Z,100.00
2022-08-09T21:57:37.137Z,100.00
2022-08-09T22:00:09.758Z,100.00
2022-08-09T22:02:42.868Z,100.00
2022-08-09T22:05:23.261Z,100.00
2022-08-09T22:07:53.329Z,100.00
2022-08-09T22:10:24.023Z,100.00
2022-08-09T22:12:53.585Z,100.00
2022-08-09T22:15:23.334Z,100.00
2022-08-09T22:18:04.053Z,100.00
2022-08-09T22:20:34.315Z,100.00
2022-08-09T22:23:04.913Z,100.00
2022-08-09T22:26:08.691Z,100.00
2022-08-09T22:28:32.389Z,100.00
2022-08-09T22:31:02.836Z,100.00
2022-08-09T22:33:42.701Z,100.00
2022-08-09T22:36:19.715Z,100.00
2022-08-09T22:38:48.487Z,100.00
2022-08-09T22:41:17.196Z,100.00
2022-08-09T22:44:03.207Z,100.00
2022-08-09T22:48:13.130Z,100.00
2022-08-09T22:49:23.450Z,100.00
2022-08-09T22:51:57.113Z,100.00
2022-08-09T22:54:27.709Z,100.00
2022-08-09T22:56:58.766Z,100.00
2022-08-09T22:59:55.384Z,100.00
2022-08-09T23:02:20.416Z,100.00
2022-08-09T23:04:54.279Z,100.00
2022-08-09T23:08:21.884Z,100.00
2022-08-09T23:10:32.593Z,100.00
2022-08-09T23:13:01.301Z,100.00
2022-08-09T23:15:30.974Z,100.00
2022-08-09T23:17:59.733Z,100.00
2022-08-09T23:20:28.914Z,100.00
2022-08-09T23:22:58.765Z,100.00
2022-08-09T23:25:27.680Z,100.00
2022-08-09T23:28:11.634Z,100.00
2022-08-09T23:30:51.289Z,100.00
2022-08-09T23:33:21.416Z,100.00
2022-08-09T23:36:04.617Z,100.00
2022-08-09T23:38:48.522Z,100.00
2022-08-09T23:41:29.017Z,100.00
2022-08-09T23:43:58.970Z,100.00
2022-08-09T23:46:27.946Z,100.00
2022-08-09T23:48:56.841Z,100.00
2022-08-09T23:51:25.617Z,100.00
2022-08-09T23:54:03.267Z,100.00
2022-08-09T23:56:52.809Z,100.00
2022-08-09T23:59:21.987Z,100.00
